sensor_id;sensor_type;location;lat;lon;timestamp;pressure;altitude;pressure_sealevel;temperature;humidity
46782;BME280;32541;46.298;11.506;2023-05-09T00:01:29;89814.66;;;10.13;100.00
46782;BME280;32541;46.298;11.506;2023-05-09T00:03:56;89812.66;;;10.14;100.00
46782;BME280;32541;46.298;11.506;2023-05-09T00:06:22;89801.66;;;10.14;100.00
46782;BME280;32541;46.298;11.506;2023-05-09T00:08:48;89805.88;;;10.15;100.00
46782;BME280;32541;46.298;11.506;2023-05-09T00:11:13;89800.75;;;10.11;100.00
46782;BME280;32541;46.298;11.506;2023-05-09T00:13:39;89799.22;;;10.18;100.00
46782;BME280;32541;46.298;11.506;2023-05-09T00:16:06;89808.75;;;10.17;100.00
46782;BME280;32541;46.298;11.506;2023-05-09T00:18:32;89798.50;;;10.17;100.00
46782;BME280;32541;46.298;11.506;2023-05-09T00:20:58;89800.03;;;10.11;100.00
46782;BME280;32541;46.298;11.506;2023-05-09T00:23:23;89796.31;;;10.16;100.00
46782;BME280;32541;46.298;11.506;2023-05-09T00:25:48;89798.19;;;10.13;100.00
46782;BME280;32541;46.298;11.506;2023-05-09T00:28:14;89797.78;;;10.17;100.00
46782;BME280;32541;46.298;11.506;2023-05-09T00:30:39;89783.31;;;10.16;100.00
46782;BME280;32541;46.298;11.506;2023-05-09T00:33:04;89788.66;;;10.14;100.00
46782;BME280;32541;46.298;11.506;2023-05-09T00:35:30;89785.00;;;10.12;100.00
46782;BME280;32541;46.298;11.506;2023-05-09T00:37:56;89784.75;;;10.17;100.00
46782;BME280;32541;46.298;11.506;2023-05-09T00:40:21;89783.53;;;10.11;100.00
46782;BME280;32541;46.298;11.506;2023-05-09T00:42:47;89781.19;;;10.07;100.00
46782;BME280;32541;46.298;11.506;2023-05-09T00:45:12;89777.75;;;10.07;100.00
46782;BME280;32541;46.298;11.506;2023-05-09T00:47:38;89775.44;;;10.13;100.00
46782;BME280;32541;46.298;11.506;2023-05-09T00:50:04;89773.19;;;10.19;100.00
46782;BME280;32541;46.298;11.506;2023-05-09T00:52:32;89765.53;;;10.17;100.00
46782;BME280;32541;46.298;11.506;2023-05-09T00:54:57;89770.47;;;10.01;100.00
46782;BME280;32541;46.298;11.506;2023-05-09T00:57:24;89759.56;;;9.84;100.00
46782;BME280;32541;46.298;11.506;2023-05-09T00:59:49;89762.44;;;9.86;100.00
46782;BME280;32541;46.298;11.506;2023-05-09T01:02:16;89763.31;;;9.89;100.00
46782;BME280;32541;46.298;11.506;2023-05-09T01:04:44;89753.78;;;9.90;100.00
46782;BME280;32541;46.298;11.506;2023-05-09T01:07:21;89757.28;;;9.90;100.00
46782;BME280;32541;46.298;11.506;2023-05-09T01:10:00;89753.06;;;9.89;100.00
46782;BME280;32541;46.298;11.506;2023-05-09T01:12:36;89755.25;;;9.91;100.00
46782;BME280;32541;46.298;11.506;2023-05-09T01:15:38;89753.53;;;9.95;100.00
46782;BME280;32541;46.298;11.506;2023-05-09T01:20:33;89756.47;;;10.07;100.00
46782;BME280;32541;46.298;11.506;2023-05-09T01:31:12;89749.84;;;9.83;100.00
46782;BME280;32541;46.298;11.506;2023-05-09T01:33:39;89754.59;;;9.56;100.00
46782;BME280;32541;46.298;11.506;2023-05-09T01:36:12;89764.00;;;9.53;100.00
46782;BME280;32541;46.298;11.506;2023-05-09T01:38:41;89757.28;;;9.64;100.00
46782;BME280;32541;46.298;11.506;2023-05-09T01:41:08;89752.34;;;9.62;100.00
46782;BME280;32541;46.298;11.506;2023-05-09T01:43:35;89758.28;;;9.68;100.00
46782;BME280;32541;46.298;11.506;2023-05-09T01:46:04;89763.63;;;9.66;100.00
46782;BME280;32541;46.298;11.506;2023-05-09T01:48:30;89755.53;;;9.68;100.00
46782;BME280;32541;46.298;11.506;2023-05-09T01:50:56;89754.00;;;9.75;100.00
46782;BME280;32541;46.298;11.506;2023-05-09T01:53:23;89756.06;;;9.84;100.00
46782;BME280;32541;46.298;11.506;2023-05-09T01:55:50;89761.16;;;9.87;100.00
46782;BME280;32541;46.298;11.506;2023-05-09T01:58:17;89753.38;;;9.93;100.00
46782;BME280;32541;46.298;11.506;2023-05-09T02:00:44;89758.41;;;9.87;100.00
46782;BME280;32541;46.298;11.506;2023-05-09T02:03:10;89751.72;;;9.81;100.00
46782;BME280;32541;46.298;11.506;2023-05-09T02:05:36;89744.38;;;9.83;100.00
46782;BME280;32541;46.298;11.506;2023-05-09T02:08:01;89742.00;;;9.70;100.00
46782;BME280;32541;46.298;11.506;2023-05-09T02:10:27;89741.25;;;9.70;100.00
46782;BME280;32541;46.298;11.506;2023-05-09T02:12:53;89739.06;;;9.68;100.00
46782;BME280;32541;46.298;11.506;2023-05-09T02:15:20;89739.53;;;9.74;100.00
46782;BME280;32541;46.298;11.506;2023-05-09T02:17:45;89737.06;;;9.69;100.00
46782;BME280;32541;46.298;11.506;2023-05-09T02:20:11;89748.78;;;9.69;100.00
46782;BME280;32541;46.298;11.506;2023-05-09T02:22:38;89740.44;;;9.77;100.00
46782;BME280;32541;46.298;11.506;2023-05-09T02:25:04;89744.88;;;9.72;100.00
46782;BME280;32541;46.298;11.506;2023-05-09T02:27:32;89740.44;;;9.77;100.00
46782;BME280;32541;46.298;11.506;2023-05-09T02:30:00;89739.53;;;9.74;100.00
46782;BME280;32541;46.298;11.506;2023-05-09T02:32:30;89738.09;;;9.73;100.00
46782;BME280;32541;46.298;11.506;2023-05-09T02:34:56;89737.13;;;9.78;100.00
46782;BME280;32541;46.298;11.506;2023-05-09T02:37:22;89731.31;;;9.74;100.00
46782;BME280;32541;46.298;11.506;2023-05-09T02:39:48;89728.72;;;9.76;100.00
46782;BME280;32541;46.298;11.506;2023-05-09T02:42:18;89728.00;;;9.76;100.00
46782;BME280;32541;46.298;11.506;2023-05-09T02:44:45;89721.63;;;9.73;100.00
46782;BME280;32541;46.298;11.506;2023-05-09T02:47:10;89720.03;;;9.70;100.00
46782;BME280;32541;46.298;11.506;2023-05-09T02:49:35;89730.69;;;9.66;100.00
46782;BME280;32541;46.298;11.506;2023-05-09T02:52:01;89723.75;;;9.65;100.00
46782;BME280;32541;46.298;11.506;2023-05-09T02:54:27;89721.91;;;9.68;100.00
46782;BME280;32541;46.298;11.506;2023-05-09T02:56:52;89718.56;;;9.69;100.00
46782;BME280;32541;46.298;11.506;2023-05-09T02:59:18;89719.84;;;9.68;100.00
46782;BME280;32541;46.298;11.506;2023-05-09T03:01:44;89716.81;;;9.64;100.00
46782;BME280;32541;46.298;11.506;2023-05-09T03:04:09;89710.34;;;9.69;100.00
46782;BME280;32541;46.298;11.506;2023-05-09T03:06:35;89715.69;;;9.67;100.00
46782;BME280;32541;46.298;11.506;2023-05-09T03:09:01;89715.69;;;9.67;100.00
46782;BME280;32541;46.298;11.506;2023-05-09T03:11:26;89711.00;;;9.60;100.00
46782;BME280;32541;46.298;11.506;2023-05-09T03:13:52;89706.50;;;9.55;100.00
46782;BME280;32541;46.298;11.506;2023-05-09T03:16:18;89712.88;;;9.58;100.00
46782;BME280;32541;46.298;11.506;2023-05-09T03:18:44;89704.63;;;9.58;100.00
46782;BME280;32541;46.298;11.506;2023-05-09T03:21:09;89705.38;;;9.58;100.00
46782;BME280;32541;46.298;11.506;2023-05-09T03:23:35;89705.91;;;9.57;100.00
46782;BME280;32541;46.298;11.506;2023-05-09T03:26:00;89698.41;;;9.57;100.00
46782;BME280;32541;46.298;11.506;2023-05-09T03:28:27;89704.53;;;9.65;100.00
46782;BME280;32541;46.298;11.506;2023-05-09T03:30:53;89702.91;;;9.62;100.00
46782;BME280;32541;46.298;11.506;2023-05-09T03:33:18;89699.56;;;9.54;100.00
46782;BME280;32541;46.298;11.506;2023-05-09T03:35:43;89702.50;;;9.66;100.00
46782;BME280;32541;46.298;11.506;2023-05-09T03:38:09;89696.53;;;9.50;100.00
46782;BME280;32541;46.298;11.506;2023-05-09T03:40:34;89700.59;;;9.59;100.00
46782;BME280;32541;46.298;11.506;2023-05-09T03:42:59;89702.00;;;9.50;100.00
46782;BME280;32541;46.298;11.506;2023-05-09T03:45:25;89697.81;;;9.49;100.00
46782;BME280;32541;46.298;11.506;2023-05-09T03:47:50;89697.34;;;9.43;100.00
46782;BME280;32541;46.298;11.506;2023-05-09T03:50:16;89705.72;;;9.45;100.00
46782;BME280;32541;46.298;11.506;2023-05-09T03:52:41;89702.41;;;9.46;100.00
46782;BME280;32541;46.298;11.506;2023-05-09T03:55:07;89708.94;;;9.51;100.00
46782;BME280;32541;46.298;11.506;2023-05-09T03:57:34;89704.75;;;9.50;100.00
46782;BME280;32541;46.298;11.506;2023-05-09T04:00:00;89705.47;;;9.50;100.00
46782;BME280;32541;46.298;11.506;2023-05-09T04:02:26;89707.38;;;9.58;100.00
46782;BME280;32541;46.298;11.506;2023-05-09T04:04:51;89714.16;;;9.57;100.00
46782;BME280;32541;46.298;11.506;2023-05-09T04:07:17;89706.03;;;9.49;100.00
46782;BME280;32541;46.298;11.506;2023-05-09T04:09:43;89708.53;;;9.55;100.00
46782;BME280;32541;46.298;11.506;2023-05-09T04:12:09;89709.78;;;9.44;100.00
46782;BME280;32541;46.298;11.506;2023-05-09T04:14:34;89713.94;;;9.45;100.00
46782;BME280;32541;46.298;11.506;2023-05-09T04:17:00;89714.53;;;9.43;100.00
46782;BME280;32541;46.298;11.506;2023-05-09T04:19:25;89711.94;;;9.45;100.00
46782;BME280;32541;46.298;11.506;2023-05-09T04:21:51;89714.75;;;9.55;100.00
46782;BME280;32541;46.298;11.506;2023-05-09T04:24:16;89719.16;;;9.24;100.00
46782;BME280;32541;46.298;11.506;2023-05-09T04:26:41;89727.97;;;9.05;100.00
46782;BME280;32541;46.298;11.506;2023-05-09T04:29:07;89721.19;;;9.06;100.00
46782;BME280;32541;46.298;11.506;2023-05-09T04:31:32;89727.34;;;9.14;100.00
46782;BME280;32541;46.298;11.506;2023-05-09T04:33:58;89727.63;;;9.18;100.00
46782;BME280;32541;46.298;11.506;2023-05-09T04:36:23;89721.91;;;9.24;100.00
46782;BME280;32541;46.298;11.506;2023-05-09T04:38:49;89719.06;;;9.31;100.00
46782;BME280;32541;46.298;11.506;2023-05-09T04:41:14;89707.69;;;9.35;100.00
46782;BME280;32541;46.298;11.506;2023-05-09T04:43:42;89715.50;;;9.38;100.00
46782;BME280;32541;46.298;11.506;2023-05-09T04:46:07;89714.53;;;9.43;100.00
46782;BME280;32541;46.298;11.506;2023-05-09T04:48:34;89717.00;;;9.49;100.00
46782;BME280;32541;46.298;11.506;2023-05-09T04:50:59;89709.41;;;9.57;100.00
46782;BME280;32541;46.298;11.506;2023-05-09T04:53:25;89719.72;;;9.66;100.00
46782;BME280;32541;46.298;11.506;2023-05-09T04:55:52;89712.66;;;9.73;100.00
46782;BME280;32541;46.298;11.506;2023-05-09T04:58:18;89716.59;;;9.79;100.00
46782;BME280;32541;46.298;11.506;2023-05-09T05:00:43;89716.50;;;9.87;100.00
46782;BME280;32541;46.298;11.506;2023-05-09T05:03:09;89710.00;;;9.92;100.00
46782;BME280;32541;46.298;11.506;2023-05-09T05:05:34;89715.84;;;10.05;100.00
46782;BME280;32541;46.298;11.506;2023-05-09T05:07:59;89711.97;;;10.09;100.00
46782;BME280;32541;46.298;11.506;2023-05-09T05:10:25;89711.38;;;10.10;100.00
46782;BME280;32541;46.298;11.506;2023-05-09T05:12:50;89723.56;;;10.17;100.00
46782;BME280;32541;46.298;11.506;2023-05-09T05:15:16;89719.59;;;10.27;100.00
46782;BME280;32541;46.298;11.506;2023-05-09T05:17:43;89721.88;;;10.31;100.00
46782;BME280;32541;46.298;11.506;2023-05-09T05:20:09;89711.06;;;10.33;100.00
46782;BME280;32541;46.298;11.506;2023-05-09T05:22:35;89718.72;;;10.34;100.00
46782;BME280;32541;46.298;11.506;2023-05-09T05:25:00;89711.06;;;10.33;100.00
46782;BME280;32541;46.298;11.506;2023-05-09T05:27:27;89718.34;;;10.47;100.00
46782;BME280;32541;46.298;11.506;2023-05-09T05:29:53;89717.00;;;10.48;100.00
46782;BME280;32541;46.298;11.506;2023-05-09T05:32:19;89711.69;;;10.60;100.00
46782;BME280;32541;46.298;11.506;2023-05-09T05:34:45;89716.56;;;10.33;100.00
46782;BME280;32541;46.298;11.506;2023-05-09T05:37:11;89721.59;;;10.36;100.00
46782;BME280;32541;46.298;11.506;2023-05-09T05:39:36;89719.16;;;10.04;100.00
46782;BME280;32541;46.298;11.506;2023-05-09T05:42:01;89719.44;;;9.98;100.00
46782;BME280;32541;46.298;11.506;2023-05-09T05:44:27;89715.28;;;9.80;100.00
46782;BME280;32541;46.298;11.506;2023-05-09T05:46:52;89715.16;;;9.78;100.00
46782;BME280;32541;46.298;11.506;2023-05-09T05:49:18;89714.09;;;10.00;100.00
46782;BME280;32541;46.298;11.506;2023-05-09T05:51:43;89711.81;;;10.07;100.00
46782;BME280;32541;46.298;11.506;2023-05-09T05:54:08;89722.13;;;10.16;100.00
46782;BME280;32541;46.298;11.506;2023-05-09T05:56:34;89717.97;;;10.24;100.00
46782;BME280;32541;46.298;11.506;2023-05-09T05:58:59;89720.03;;;10.33;100.00
46782;BME280;32541;46.298;11.506;2023-05-09T06:01:24;89713.25;;;10.44;100.00
46782;BME280;32541;46.298;11.506;2023-05-09T06:03:50;89717.03;;;10.58;100.00
46782;BME280;32541;46.298;11.506;2023-05-09T06:06:20;89716.47;;;10.69;100.00
46782;BME280;32541;46.298;11.506;2023-05-09T06:08:46;89703.91;;;10.76;100.00
46782;BME280;32541;46.298;11.506;2023-05-09T06:11:14;89707.50;;;10.78;100.00
46782;BME280;32541;46.298;11.506;2023-05-09T06:13:40;89707.41;;;10.95;100.00
46782;BME280;32541;46.298;11.506;2023-05-09T06:16:07;89707.69;;;10.99;100.00
46782;BME280;32541;46.298;11.506;2023-05-09T06:18:33;89707.13;;;11.10;100.00
46782;BME280;32541;46.298;11.506;2023-05-09T06:20:59;89713.19;;;11.19;100.00
46782;BME280;32541;46.298;11.506;2023-05-09T06:23:25;89711.88;;;11.29;100.00
46782;BME280;32541;46.298;11.506;2023-05-09T06:25:50;89707.66;;;11.38;100.00
46782;BME280;32541;46.298;11.506;2023-05-09T06:28:16;89705.34;;;11.44;100.00
46782;BME280;32541;46.298;11.506;2023-05-09T06:30:41;89707.66;;;11.47;98.76
46782;BME280;32541;46.298;11.506;2023-05-09T06:33:06;89707.84;;;11.40;100.00
46782;BME280;32541;46.298;11.506;2023-05-09T06:35:32;89703.78;;;11.02;100.00
46782;BME280;32541;46.298;11.506;2023-05-09T06:37:57;89711.25;;;10.54;100.00
46782;BME280;32541;46.298;11.506;2023-05-09T06:40:22;89704.88;;;10.51;100.00
46782;BME280;32541;46.298;11.506;2023-05-09T06:42:48;89701.97;;;10.49;100.00
46782;BME280;32541;46.298;11.506;2023-05-09T06:45:13;89703.13;;;10.46;100.00
46782;BME280;32541;46.298;11.506;2023-05-09T06:47:39;89698.41;;;10.76;100.00
46782;BME280;32541;46.298;11.506;2023-05-09T06:50:04;89704.50;;;10.84;100.00
46782;BME280;32541;46.298;11.506;2023-05-09T06:52:30;89696.25;;;10.84;100.00
46782;BME280;32541;46.298;11.506;2023-05-09T06:54:55;89709.38;;;10.66;100.00
46782;BME280;32541;46.298;11.506;2023-05-09T06:57:21;89707.94;;;10.65;100.00
46782;BME280;32541;46.298;11.506;2023-05-09T06:59:46;89710.81;;;10.48;100.00
46782;BME280;32541;46.298;11.506;2023-05-09T07:02:11;89709.25;;;10.64;100.00
46782;BME280;32541;46.298;11.506;2023-05-09T07:04:37;89708.22;;;10.69;100.00
46782;BME280;32541;46.298;11.506;2023-05-09T07:07:02;89705.22;;;10.75;100.00
46782;BME280;32541;46.298;11.506;2023-05-09T07:09:27;89705.09;;;10.92;100.00
46782;BME280;32541;46.298;11.506;2023-05-09T07:11:54;89703.06;;;11.11;100.00
46782;BME280;32541;46.298;11.506;2023-05-09T07:14:19;89697.25;;;11.27;100.00
46782;BME280;32541;46.298;11.506;2023-05-09T07:16:45;89697.84;;;11.25;100.00
46782;BME280;32541;46.298;11.506;2023-05-09T07:19:11;89701.31;;;11.45;100.00
46782;BME280;32541;46.298;11.506;2023-05-09T07:21:36;89699.25;;;11.55;100.00
46782;BME280;32541;46.298;11.506;2023-05-09T07:24:01;89691.09;;;11.76;98.62
46782;BME280;32541;46.298;11.506;2023-05-09T07:26:27;89695.03;;;11.73;97.94
46782;BME280;32541;46.298;11.506;2023-05-09T07:28:53;89704.34;;;11.39;100.00
46782;BME280;32541;46.298;11.506;2023-05-09T07:31:18;89691.91;;;11.19;100.00
46782;BME280;32541;46.298;11.506;2023-05-09T07:33:43;89690.28;;;11.26;100.00
46782;BME280;32541;46.298;11.506;2023-05-09T07:36:09;89693.19;;;11.08;100.00
46782;BME280;32541;46.298;11.506;2023-05-09T07:38:38;89691.91;;;11.19;100.00
46782;BME280;32541;46.298;11.506;2023-05-09T07:41:04;89686.53;;;11.21;100.00
46782;BME280;32541;46.298;11.506;2023-05-09T07:43:29;89691.28;;;11.59;100.00
46782;BME280;32541;46.298;11.506;2023-05-09T07:45:55;89681.97;;;11.64;100.00
46782;BME280;32541;46.298;11.506;2023-05-09T07:48:20;89678.97;;;11.69;100.00
46782;BME280;32541;46.298;11.506;2023-05-09T07:50:45;89675.91;;;11.75;100.00
46782;BME280;32541;46.298;11.506;2023-05-09T07:53:11;89675.28;;;11.86;100.00
46782;BME280;32541;46.298;11.506;2023-05-09T07:55:36;89665.22;;;12.00;100.00
46782;BME280;32541;46.298;11.506;2023-05-09T07:58:01;89673.25;;;12.17;99.90
46782;BME280;32541;46.298;11.506;2023-05-09T08:00:27;89664.00;;;12.13;100.00
46782;BME280;32541;46.298;11.506;2023-05-09T08:02:52;89658.47;;;12.22;100.00
46782;BME280;32541;46.298;11.506;2023-05-09T08:05:18;89661.47;;;12.26;100.00
46782;BME280;32541;46.298;11.506;2023-05-09T08:07:44;89657.38;;;12.37;100.00
46782;BME280;32541;46.298;11.506;2023-05-09T08:10:09;89649.91;;;12.49;100.00
46782;BME280;32541;46.298;11.506;2023-05-09T08:12:35;89639.06;;;12.84;97.20
46782;BME280;32541;46.298;11.506;2023-05-09T08:15:01;89641.75;;;12.94;95.99
46782;BME280;32541;46.298;11.506;2023-05-09T08:17:26;89638.22;;;12.81;96.76
46782;BME280;32541;46.298;11.506;2023-05-09T08:19:51;89637.38;;;12.58;97.06
46782;BME280;32541;46.298;11.506;2023-05-09T08:22:18;89629.03;;;12.67;97.04
46782;BME280;32541;46.298;11.506;2023-05-09T08:24:44;89630.50;;;13.01;97.03
46782;BME280;32541;46.298;11.506;2023-05-09T08:27:11;89623.06;;;13.25;95.93
46782;BME280;32541;46.298;11.506;2023-05-09T08:29:40;89616.09;;;13.57;95.44
46782;BME280;32541;46.298;11.506;2023-05-09T08:32:06;89618.44;;;14.07;94.36
46782;BME280;32541;46.298;11.506;2023-05-09T08:34:32;89617.13;;;14.31;88.89
46782;BME280;32541;46.298;11.506;2023-05-09T08:37:02;89618.47;;;14.41;86.67
46782;BME280;32541;46.298;11.506;2023-05-09T08:39:28;89607.38;;;13.95;87.84
46782;BME280;32541;46.298;11.506;2023-05-09T08:41:58;89605.34;;;14.07;90.25
46782;BME280;32541;46.298;11.506;2023-05-09T08:44:28;89604.69;;;13.74;88.01
46782;BME280;32541;46.298;11.506;2023-05-09T08:46:58;89603.16;;;13.82;89.25
46782;BME280;32541;46.298;11.506;2023-05-09T08:49:24;89603.88;;;13.83;89.15
46782;BME280;32541;46.298;11.506;2023-05-09T08:51:50;89597.41;;;14.13;90.21
46782;BME280;32541;46.298;11.506;2023-05-09T08:54:17;89607.59;;;13.76;81.85
46782;BME280;32541;46.298;11.506;2023-05-09T08:56:42;89602.06;;;14.22;87.74
46782;BME280;32541;46.298;11.506;2023-05-09T08:59:08;89605.25;;;14.40;85.25
46782;BME280;32541;46.298;11.506;2023-05-09T09:01:34;89599.44;;;14.48;79.63
46782;BME280;32541;46.298;11.506;2023-05-09T09:04:05;89604.22;;;14.59;78.10
46782;BME280;32541;46.298;11.506;2023-05-09T09:06:32;89598.81;;;14.26;76.34
46782;BME280;32541;46.298;11.506;2023-05-09T09:08:58;89601.03;;;14.39;78.98
46782;BME280;32541;46.298;11.506;2023-05-09T09:11:25;89597.63;;;14.52;78.23
46782;BME280;32541;46.298;11.506;2023-05-09T09:13:51;89594.97;;;14.66;77.30
46782;BME280;32541;46.298;11.506;2023-05-09T09:16:19;89597.28;;;14.58;78.42
46782;BME280;32541;46.298;11.506;2023-05-09T09:18:46;89601.69;;;14.74;80.43
46782;BME280;32541;46.298;11.506;2023-05-09T09:21:14;89592.59;;;14.97;81.96
46782;BME280;32541;46.298;11.506;2023-05-09T09:23:42;89577.75;;;15.04;80.95
46782;BME280;32541;46.298;11.506;2023-05-09T09:26:07;89575.94;;;15.09;79.76
46782;BME280;32541;46.298;11.506;2023-05-09T09:28:33;89577.00;;;15.40;80.51
46782;BME280;32541;46.298;11.506;2023-05-09T09:30:59;89577.28;;;15.33;81.00
46782;BME280;32541;46.298;11.506;2023-05-09T09:33:25;89572.13;;;15.27;82.26
46782;BME280;32541;46.298;11.506;2023-05-09T09:35:53;89575.13;;;15.31;83.42
46782;BME280;32541;46.298;11.506;2023-05-09T09:38:20;89576.75;;;15.48;83.42
46782;BME280;32541;46.298;11.506;2023-05-09T09:43:17;89562.41;;;14.89;83.28
46782;BME280;32541;46.298;11.506;2023-05-09T09:45:47;89559.44;;;15.11;83.11
46782;BME280;32541;46.298;11.506;2023-05-09T09:48:13;89555.28;;;15.23;84.44
46782;BME280;32541;46.298;11.506;2023-05-09T09:50:38;89554.38;;;15.32;85.78
46782;BME280;32541;46.298;11.506;2023-05-09T09:53:03;89556.22;;;15.53;84.39
46782;BME280;32541;46.298;11.506;2023-05-09T09:55:30;89554.09;;;15.65;82.10
46782;BME280;32541;46.298;11.506;2023-05-09T09:57:56;89544.50;;;15.80;82.13
46782;BME280;32541;46.298;11.506;2023-05-09T10:00:25;89541.03;;;15.93;80.11
46782;BME280;32541;46.298;11.506;2023-05-09T10:02:53;89551.91;;;15.89;77.67
46782;BME280;32541;46.298;11.506;2023-05-09T10:05:27;89538.97;;;16.07;73.07
46782;BME280;32541;46.298;11.506;2023-05-09T10:07:58;89537.88;;;16.26;73.99
46782;BME280;32541;46.298;11.506;2023-05-09T10:10:28;89535.59;;;16.77;75.02
46782;BME280;32541;46.298;11.506;2023-05-09T10:13:00;89531.19;;;16.17;70.05
46782;BME280;32541;46.298;11.506;2023-05-09T10:15:28;89519.56;;;16.07;76.82
46782;BME280;32541;46.298;11.506;2023-05-09T10:17:56;89530.25;;;16.12;73.48
46782;BME280;32541;46.298;11.506;2023-05-09T10:20:23;89529.41;;;15.44;71.70
46782;BME280;32541;46.298;11.506;2023-05-09T10:22:54;89538.28;;;15.29;73.69
46782;BME280;32541;46.298;11.506;2023-05-09T10:25:23;89528.69;;;15.43;76.39
46782;BME280;32541;46.298;11.506;2023-05-09T10:27:53;89533.88;;;14.87;75.44
46782;BME280;32541;46.298;11.506;2023-05-09T10:33:09;89527.06;;;15.27;76.81
46782;BME280;32541;46.298;11.506;2023-05-09T10:35:47;89531.91;;;15.51;75.86
46782;BME280;32541;46.298;11.506;2023-05-09T10:38:15;89528.94;;;15.36;74.31
46782;BME280;32541;46.298;11.506;2023-05-09T10:40:40;89523.00;;;15.41;74.75
46782;BME280;32541;46.298;11.506;2023-05-09T10:43:06;89513.66;;;15.60;75.63
46782;BME280;32541;46.298;11.506;2023-05-09T10:45:33;89510.66;;;15.56;77.09
46782;BME280;32541;46.298;11.506;2023-05-09T10:47:59;89510.97;;;15.62;78.37
46782;BME280;32541;46.298;11.506;2023-05-09T10:50:27;89506.41;;;15.80;78.54
46782;BME280;32541;46.298;11.506;2023-05-09T10:58:29;89494.19;;;15.99;74.97
46782;BME280;32541;46.298;11.506;2023-05-09T11:00:58;89485.16;;;16.12;74.40
46782;BME280;32541;46.298;11.506;2023-05-09T11:03:25;89479.28;;;16.47;76.33
46782;BME280;32541;46.298;11.506;2023-05-09T11:05:52;89475.19;;;16.91;73.22
46782;BME280;32541;46.298;11.506;2023-05-09T11:08:26;89463.03;;;16.98;69.20
46782;BME280;32541;46.298;11.506;2023-05-09T11:10:54;89466.31;;;17.23;68.06
46782;BME280;32541;46.298;11.506;2023-05-09T11:13:21;89466.97;;;17.38;66.90
46782;BME280;32541;46.298;11.506;2023-05-09T11:18:32;89457.44;;;17.72;70.39
46782;BME280;32541;46.298;11.506;2023-05-09T11:20:58;89452.09;;;18.09;66.21
46782;BME280;32541;46.298;11.506;2023-05-09T11:23:28;89452.34;;;18.31;62.93
46782;BME280;32541;46.298;11.506;2023-05-09T11:26:04;89449.19;;;18.72;66.41
46782;BME280;32541;46.298;11.506;2023-05-09T11:28:35;89443.66;;;19.07;64.13
46782;BME280;32541;46.298;11.506;2023-05-09T11:31:12;89442.47;;;19.30;66.65
46782;BME280;32541;46.298;11.506;2023-05-09T11:33:38;89448.88;;;19.70;61.58
46782;BME280;32541;46.298;11.506;2023-05-09T11:39:07;89451.03;;;17.09;60.43
46782;BME280;32541;46.298;11.506;2023-05-09T11:41:45;89452.16;;;17.33;56.33
46782;BME280;32541;46.298;11.506;2023-05-09T11:44:20;89450.53;;;16.27;59.09
46782;BME280;32541;46.298;11.506;2023-05-09T11:46:47;89448.06;;;16.76;59.64
46782;BME280;32541;46.298;11.506;2023-05-09T11:49:13;89439.56;;;17.16;63.44
46782;BME280;32541;46.298;11.506;2023-05-09T11:51:39;89445.34;;;16.62;63.64
46782;BME280;32541;46.298;11.506;2023-05-09T11:54:06;89453.34;;;16.70;60.64
46782;BME280;32541;46.298;11.506;2023-05-09T11:56:34;89439.16;;;16.63;65.09
46782;BME280;32541;46.298;11.506;2023-05-09T11:59:00;89440.78;;;17.27;64.03
46782;BME280;32541;46.298;11.506;2023-05-09T12:01:27;89435.25;;;16.98;63.59
46782;BME280;32541;46.298;11.506;2023-05-09T12:03:52;89437.81;;;16.94;62.69
46782;BME280;32541;46.298;11.506;2023-05-09T12:06:18;89432.91;;;16.92;61.76
46782;BME280;32541;46.298;11.506;2023-05-09T12:08:44;89430.88;;;16.36;62.68
46782;BME280;32541;46.298;11.506;2023-05-09T12:11:11;89428.69;;;16.62;63.89
46782;BME280;32541;46.298;11.506;2023-05-09T12:13:47;89420.13;;;16.72;63.80
46782;BME280;32541;46.298;11.506;2023-05-09T12:16:14;89410.34;;;16.71;63.54
46782;BME280;32541;46.298;11.506;2023-05-09T12:18:48;89398.72;;;17.19;64.58
46782;BME280;32541;46.298;11.506;2023-05-09T12:21:15;89407.59;;;17.15;63.15
46782;BME280;32541;46.298;11.506;2023-05-09T12:23:40;89427.94;;;17.04;63.30
46782;BME280;32541;46.298;11.506;2023-05-09T12:26:05;89422.09;;;17.14;65.83
46782;BME280;32541;46.298;11.506;2023-05-09T12:28:31;89424.19;;;17.29;68.00
46782;BME280;32541;46.298;11.506;2023-05-09T12:30:57;89417.53;;;16.33;69.11
46782;BME280;32541;46.298;11.506;2023-05-09T12:33:23;89411.03;;;16.55;69.07
46782;BME280;32541;46.298;11.506;2023-05-09T12:36:09;89418.94;;;16.47;68.12
46782;BME280;32541;46.298;11.506;2023-05-09T12:38:36;89403.63;;;16.46;69.57
46782;BME280;32541;46.298;11.506;2023-05-09T12:41:03;89409.44;;;16.66;70.63
46782;BME280;32541;46.298;11.506;2023-05-09T12:43:32;89405.16;;;16.49;67.98
46782;BME280;32541;46.298;11.506;2023-05-09T12:45:59;89415.31;;;15.75;70.79
46782;BME280;32541;46.298;11.506;2023-05-09T12:48:25;89417.38;;;15.88;69.73
46782;BME280;32541;46.298;11.506;2023-05-09T12:50:51;89403.22;;;16.38;71.82
46782;BME280;32541;46.298;11.506;2023-05-09T12:53:27;89410.28;;;16.55;67.18
46782;BME280;32541;46.298;11.506;2023-05-09T12:56:03;89413.94;;;16.73;69.52
46782;BME280;32541;46.298;11.506;2023-05-09T12:58:29;89406.19;;;16.42;69.55
46782;BME280;32541;46.298;11.506;2023-05-09T13:00:55;89405.06;;;16.47;68.95
46782;BME280;32541;46.298;11.506;2023-05-09T13:03:22;89404.75;;;16.41;66.81
46782;BME280;32541;46.298;11.506;2023-05-09T13:06:01;89398.66;;;16.02;67.01
46782;BME280;32541;46.298;11.506;2023-05-09T13:08:27;89399.25;;;16.14;69.30
46782;BME280;32541;46.298;11.506;2023-05-09T13:10:53;89400.28;;;16.63;70.72
46782;BME280;32541;46.298;11.506;2023-05-09T13:13:19;89394.78;;;15.52;68.66